Ncc Najd — HZAK — position and weather

sailwx.info

Track history (hours):
 
Tides and Currents Weather Stations Pressure Air Temp Water Temp Dewpoint Dewpoint Depression Visibility Wind Speed Wind Dir Waves Ship Positions

Ncc Najd

Last reported at 2016-Apr-13 13:31 UTC. Time now 2016-Apr-29 12:06 UTC.
Position N 01°60' E 102°12'.
Warning: this ship's position is 15 days out of date.

Length 183 m; draft 8.7 m.

Type: Tanker. MMSI: 403579000.

Date/timePositionNaut miles runAvg speedWind from/ knotsBaromVisibWave heightAir tempDewpointWater temp
2016-Apr-13 13:31N 01°60' E 102°12'1414.9
2016-Apr-13 12:34N 01°53' E 102°25'1615.6
2016-Apr-13 11:33N 01°47' E 102°39'6114.5
2016-Apr-13 07:19N 01°13' E 103°31'811.1
2016-Apr-13 06:33N 01°12' E 103°39'1 1.1
2016-Apr-13 05:33N 01°13' E 103°39'0 0.0
2016-Apr-13 04:30N 01°13' E 103°39'0 0.0
2016-Apr-13 03:30N 01°13' E 103°39'0 0.0
2016-Apr-13 02:24N 01°13' E 103°39'0 0.0
2016-Apr-13 01:30N 01°13' E 103°39'0 0.0
2016-Apr-13 00:33N 01°13' E 103°39'0 0.0
2016-Apr-12 23:30N 01°13' E 103°39'0 0.1
2016-Apr-12 22:33N 01°13' E 103°39'0 0.1
2016-Apr-12 21:24N 01°13' E 103°39'0 0.0
2016-Apr-12 20:18N 01°13' E 103°39'0 0.1
2016-Apr-12 19:30N 01°13' E 103°39'0 0.1
2016-Apr-12 18:27N 01°13' E 103°39'0 0.2
2016-Apr-12 17:33N 01°13' E 103°39'4 4.3
2016-Apr-12 16:33N 01°10' E 103°42'5 5.3
2016-Apr-12 15:33N 01°10' E 103°47'1110.7
2016-Apr-12 14:33N 01°15' E 103°57'1212.4
2016-Apr-12 13:33N 01°17' E 104°09'  
2016-Apr-08 08:33N 21°53' E 119°46'1914.4
2016-Apr-08 07:15N 22°11' E 119°50'1015.1
2016-Apr-08 06:33N 22°22' E 119°50'1615.4
2016-Apr-08 05:30N 22°38' E 119°50'1816.4
2016-Apr-08 04:25N 22°56' E 119°50'51111.6
2016-Apr-06 08:24N 31°10' E 122°11'1113.1
2016-Apr-06 07:33N 31°15' E 121°59'1514.8
2016-Apr-06 06:32N 31°20' E 121°42'1211.8
2016-Apr-06 05:33N 31°25' E 121°31'6 6.3
2016-Apr-06 04:33N 31°30' E 121°25'1212.0
2016-Apr-06 03:33N 31°38' E 121°15'1212.1
2016-Apr-06 02:34N 31°45' E 121°04'1312.7
2016-Apr-06 01:32N 31°54' E 120°53'1211.9
2016-Apr-06 00:31N 31°60' E 120°40'1210.2
2016-Apr-05 23:22N 31°59' E 120°27'0 0.0
2016-Apr-04 06:11N 31°58' E 120°26'30 7.6
2016-Apr-04 02:17N 31°47' E 120°59'1014.0
2016-Apr-04 01:33N 31°42' E 121°09'1212.4
2016-Apr-04 00:33N 31°34' E 121°20'0 0.5
2016-Apr-03 23:33N 31°34' E 121°21'0 0.0
2016-Apr-03 22:33N 31°34' E 121°21'0 0.0
2016-Apr-03 21:33N 31°34' E 121°21'0 0.0
2016-Apr-03 20:33N 31°34' E 121°21'0 0.0
2016-Apr-03 19:33N 31°34' E 121°21'0 0.0
2016-Apr-03 18:33N 31°34' E 121°21'0 0.1
2016-Apr-03 17:33N 31°34' E 121°21'0 0.0
2016-Apr-03 16:33N 31°34' E 121°21'0 0.1
2016-Apr-03 15:33N 31°34' E 121°20'0 0.1
2016-Apr-03 14:33N 31°34' E 121°20'0 0.1
2016-Apr-03 13:33N 31°34' E 121°20'  
Track history (hours):
 
Tides and Currents Weather Stations Pressure Air Temp Water Temp Dewpoint Dewpoint Depression Visibility Wind Speed Wind Dir Waves Ship Positions

Ncc Najd

Last reported at 2016-Apr-13 13:31 UTC. Time now 2016-Apr-29 12:06 UTC.
Position N 01°60' E 102°12'.
Warning: this ship's position is 15 days out of date.

Length 183 m; draft 8.7 m.

Type: Tanker. MMSI: 403579000.

Date/timePositionNaut miles runAvg speedWind from/ knotsBaromVisibWave heightAir tempDewpointWater temp
2016-Apr-13 13:31N 01°60' E 102°12'1414.9
2016-Apr-13 12:34N 01°53' E 102°25'1615.6
2016-Apr-13 11:33N 01°47' E 102°39'6114.5
2016-Apr-13 07:19N 01°13' E 103°31'811.1
2016-Apr-13 06:33N 01°12' E 103°39'1 1.1
2016-Apr-13 05:33N 01°13' E 103°39'0 0.0
2016-Apr-13 04:30N 01°13' E 103°39'0 0.0
2016-Apr-13 03:30N 01°13' E 103°39'0 0.0
2016-Apr-13 02:24N 01°13' E 103°39'0 0.0
2016-Apr-13 01:30N 01°13' E 103°39'0 0.0
2016-Apr-13 00:33N 01°13' E 103°39'0 0.0
2016-Apr-12 23:30N 01°13' E 103°39'0 0.1
2016-Apr-12 22:33N 01°13' E 103°39'0 0.1
2016-Apr-12 21:24N 01°13' E 103°39'0 0.0
2016-Apr-12 20:18N 01°13' E 103°39'0 0.1
2016-Apr-12 19:30N 01°13' E 103°39'0 0.1
2016-Apr-12 18:27N 01°13' E 103°39'0 0.2
2016-Apr-12 17:33N 01°13' E 103°39'4 4.3
2016-Apr-12 16:33N 01°10' E 103°42'5 5.3
2016-Apr-12 15:33N 01°10' E 103°47'1110.7
2016-Apr-12 14:33N 01°15' E 103°57'1212.4
2016-Apr-12 13:33N 01°17' E 104°09'  
2016-Apr-08 08:33N 21°53' E 119°46'1914.4
2016-Apr-08 07:15N 22°11' E 119°50'1015.1
2016-Apr-08 06:33N 22°22' E 119°50'1615.4
2016-Apr-08 05:30N 22°38' E 119°50'1816.4
2016-Apr-08 04:25N 22°56' E 119°50'51111.6
2016-Apr-06 08:24N 31°10' E 122°11'1113.1
2016-Apr-06 07:33N 31°15' E 121°59'1514.8
2016-Apr-06 06:32N 31°20' E 121°42'1211.8
2016-Apr-06 05:33N 31°25' E 121°31'6 6.3
2016-Apr-06 04:33N 31°30' E 121°25'1212.0
2016-Apr-06 03:33N 31°38' E 121°15'1212.1
2016-Apr-06 02:34N 31°45' E 121°04'1312.7
2016-Apr-06 01:32N 31°54' E 120°53'1211.9
2016-Apr-06 00:31N 31°60' E 120°40'1210.2
2016-Apr-05 23:22N 31°59' E 120°27'0 0.0
2016-Apr-04 06:11N 31°58' E 120°26'30 7.6
2016-Apr-04 02:17N 31°47' E 120°59'1014.0
2016-Apr-04 01:33N 31°42' E 121°09'1212.4
2016-Apr-04 00:33N 31°34' E 121°20'0 0.5
2016-Apr-03 23:33N 31°34' E 121°21'0 0.0
2016-Apr-03 22:33N 31°34' E 121°21'0 0.0
2016-Apr-03 21:33N 31°34' E 121°21'0 0.0
2016-Apr-03 20:33N 31°34' E 121°21'0 0.0
2016-Apr-03 19:33N 31°34' E 121°21'0 0.0
2016-Apr-03 18:33N 31°34' E 121°21'0 0.1
2016-Apr-03 17:33N 31°34' E 121°21'0 0.0
2016-Apr-03 16:33N 31°34' E 121°21'0 0.1
2016-Apr-03 15:33N 31°34' E 121°20'0 0.1
2016-Apr-03 14:33N 31°34' E 121°20'0 0.1
2016-Apr-03 13:33N 31°34' E 121°20'  

Dump ship's entire track history